Archival Weather

Longyear

Longyear, Svalbard (ENSB)

Report from: Wednesday, December 6, 2023 2:50 AM UTC
Current time: Saturday, March 2, 2024 9:33 AM UTC

Current weather – Weather history – Daily summaries
Weather forecast

Temperature-4.0°C (24.8°F)
Wind chill-12.0°C (10.3°F)
Dew point-9.0°C (15.8°F)
Winds 18 kts (9.3 m/s, 20.7 mph) East-Southeast (120°)
Visibility6.2 mi. (10 km)
Clouds Few clouds 1,500 ft. (457 m)
Altimeter30.59 in.Hg (1036 mB)
Relative humidity68 %
Density altitude-3,065 ft. (-934 m)
Flight conditions Visual Meteorological Conditions
Raw dataENSB 060250Z 12018KT 9999 FEW015 M04/M09 Q1036 RMK WIND 1400FT 11024KT
An error has occurred. This application may no longer respond until reloaded. Reload 🗙